sensor_id;sensor_type;location;lat;lon;timestamp;P1;durP1;ratioP1;P2;durP2;ratioP2
16314;SDS011;8266;52.150;4.768;2023-05-07T00:01:36;12.52;;;11.40;;
16314;SDS011;8266;52.150;4.768;2023-05-07T00:04:03;12.38;;;11.18;;
16314;SDS011;8266;52.150;4.768;2023-05-07T00:06:31;13.68;;;12.35;;
16314;SDS011;8266;52.150;4.768;2023-05-07T00:09:00;14.00;;;12.65;;
16314;SDS011;8266;52.150;4.768;2023-05-07T00:11:27;13.32;;;12.13;;
16314;SDS011;8266;52.150;4.768;2023-05-07T00:13:54;13.10;;;11.90;;
16314;SDS011;8266;52.150;4.768;2023-05-07T00:16:21;13.57;;;12.27;;
16314;SDS011;8266;52.150;4.768;2023-05-07T00:18:48;14.63;;;13.13;;
16314;SDS011;8266;52.150;4.768;2023-05-07T00:21:15;13.98;;;12.68;;
16314;SDS011;8266;52.150;4.768;2023-05-07T00:23:42;14.73;;;13.27;;
16314;SDS011;8266;52.150;4.768;2023-05-07T00:26:10;15.32;;;13.82;;
16314;SDS011;8266;52.150;4.768;2023-05-07T00:28:37;15.43;;;13.55;;
16314;SDS011;8266;52.150;4.768;2023-05-07T00:31:04;15.15;;;13.57;;
16314;SDS011;8266;52.150;4.768;2023-05-07T00:33:31;16.15;;;14.52;;
16314;SDS011;8266;52.150;4.768;2023-05-07T00:35:58;15.68;;;14.18;;
16314;SDS011;8266;52.150;4.768;2023-05-07T00:38:27;15.77;;;14.10;;
16314;SDS011;8266;52.150;4.768;2023-05-07T00:40:53;16.52;;;14.38;;
16314;SDS011;8266;52.150;4.768;2023-05-07T00:43:22;14.57;;;13.10;;
16314;SDS011;8266;52.150;4.768;2023-05-07T00:45:49;14.75;;;13.25;;
16314;SDS011;8266;52.150;4.768;2023-05-07T00:48:16;14.93;;;13.23;;
16314;SDS011;8266;52.150;4.768;2023-05-07T00:50:43;15.40;;;13.85;;
16314;SDS011;8266;52.150;4.768;2023-05-07T00:53:12;16.25;;;14.60;;
16314;SDS011;8266;52.150;4.768;2023-05-07T00:55:39;16.20;;;14.55;;
16314;SDS011;8266;52.150;4.768;2023-05-07T00:58:06;15.60;;;14.10;;
16314;SDS011;8266;52.150;4.768;2023-05-07T01:00:34;16.05;;;14.48;;
16314;SDS011;8266;52.150;4.768;2023-05-07T01:03:02;15.27;;;13.75;;
16314;SDS011;8266;52.150;4.768;2023-05-07T01:05:29;17.10;;;15.40;;
16314;SDS011;8266;52.150;4.768;2023-05-07T01:07:56;16.15;;;14.48;;
16314;SDS011;8266;52.150;4.768;2023-05-07T01:10:24;14.88;;;13.30;;
16314;SDS011;8266;52.150;4.768;2023-05-07T01:12:51;15.80;;;14.10;;
16314;SDS011;8266;52.150;4.768;2023-05-07T01:15:20;15.15;;;13.75;;
16314;SDS011;8266;52.150;4.768;2023-05-07T01:17:48;16.50;;;14.98;;
16314;SDS011;8266;52.150;4.768;2023-05-07T01:20:15;16.75;;;15.13;;
16314;SDS011;8266;52.150;4.768;2023-05-07T01:22:45;18.10;;;16.40;;
16314;SDS011;8266;52.150;4.768;2023-05-07T01:25:12;15.57;;;14.07;;
16314;SDS011;8266;52.150;4.768;2023-05-07T01:27:41;15.55;;;14.15;;
16314;SDS011;8266;52.150;4.768;2023-05-07T01:30:08;16.48;;;14.75;;
16314;SDS011;8266;52.150;4.768;2023-05-07T01:32:37;15.63;;;14.00;;
16314;SDS011;8266;52.150;4.768;2023-05-07T01:35:09;15.40;;;13.93;;
16314;SDS011;8266;52.150;4.768;2023-05-07T01:37:39;15.63;;;14.15;;
16314;SDS011;8266;52.150;4.768;2023-05-07T01:40:09;14.63;;;13.32;;
16314;SDS011;8266;52.150;4.768;2023-05-07T01:42:36;13.98;;;12.63;;
16314;SDS011;8266;52.150;4.768;2023-05-07T01:45:04;14.13;;;12.82;;
16314;SDS011;8266;52.150;4.768;2023-05-07T01:47:32;14.02;;;12.63;;
16314;SDS011;8266;52.150;4.768;2023-05-07T01:49:59;14.15;;;12.85;;
16314;SDS011;8266;52.150;4.768;2023-05-07T01:52:27;12.85;;;11.65;;
16314;SDS011;8266;52.150;4.768;2023-05-07T01:54:55;15.20;;;11.65;;
16314;SDS011;8266;52.150;4.768;2023-05-07T01:57:23;12.82;;;11.65;;
16314;SDS011;8266;52.150;4.768;2023-05-07T01:59:50;13.13;;;11.82;;
16314;SDS011;8266;52.150;4.768;2023-05-07T02:02:17;11.63;;;10.55;;
16314;SDS011;8266;52.150;4.768;2023-05-07T02:04:44;12.20;;;11.13;;
16314;SDS011;8266;52.150;4.768;2023-05-07T02:07:11;11.30;;;10.30;;
16314;SDS011;8266;52.150;4.768;2023-05-07T02:09:38;11.70;;;10.50;;
16314;SDS011;8266;52.150;4.768;2023-05-07T02:12:05;12.90;;;10.60;;
16314;SDS011;8266;52.150;4.768;2023-05-07T02:14:33;10.27;;;9.38;;
16314;SDS011;8266;52.150;4.768;2023-05-07T02:17:00;9.93;;;8.95;;
16314;SDS011;8266;52.150;4.768;2023-05-07T02:19:27;9.68;;;8.88;;
16314;SDS011;8266;52.150;4.768;2023-05-07T02:21:54;9.60;;;8.70;;
16314;SDS011;8266;52.150;4.768;2023-05-07T02:24:21;8.88;;;8.07;;
16314;SDS011;8266;52.150;4.768;2023-05-07T02:26:48;8.95;;;8.18;;
16314;SDS011;8266;52.150;4.768;2023-05-07T02:29:15;8.93;;;8.18;;
16314;SDS011;8266;52.150;4.768;2023-05-07T02:31:44;7.85;;;7.15;;
16314;SDS011;8266;52.150;4.768;2023-05-07T02:34:11;9.18;;;7.53;;
16314;SDS011;8266;52.150;4.768;2023-05-07T02:36:38;7.53;;;6.88;;
16314;SDS011;8266;52.150;4.768;2023-05-07T02:39:05;7.45;;;6.85;;
16314;SDS011;8266;52.150;4.768;2023-05-07T02:41:32;7.90;;;7.05;;
16314;SDS011;8266;52.150;4.768;2023-05-07T02:43:58;8.68;;;7.88;;
16314;SDS011;8266;52.150;4.768;2023-05-07T02:46:25;7.55;;;6.85;;
16314;SDS011;8266;52.150;4.768;2023-05-07T02:48:54;7.25;;;6.65;;
16314;SDS011;8266;52.150;4.768;2023-05-07T02:51:21;6.95;;;6.30;;
16314;SDS011;8266;52.150;4.768;2023-05-07T02:53:49;6.95;;;6.32;;
16314;SDS011;8266;52.150;4.768;2023-05-07T02:56:15;7.05;;;6.45;;
16314;SDS011;8266;52.150;4.768;2023-05-07T02:58:42;6.85;;;6.15;;
16314;SDS011;8266;52.150;4.768;2023-05-07T03:01:10;6.93;;;6.22;;
16314;SDS011;8266;52.150;4.768;2023-05-07T03:03:38;5.72;;;5.22;;
16314;SDS011;8266;52.150;4.768;2023-05-07T03:06:07;6.47;;;5.80;;
16314;SDS011;8266;52.150;4.768;2023-05-07T03:08:34;6.45;;;5.85;;
16314;SDS011;8266;52.150;4.768;2023-05-07T03:11:01;7.00;;;6.38;;
16314;SDS011;8266;52.150;4.768;2023-05-07T03:13:28;6.90;;;6.20;;
16314;SDS011;8266;52.150;4.768;2023-05-07T03:15:55;6.10;;;5.60;;
16314;SDS011;8266;52.150;4.768;2023-05-07T03:18:22;6.10;;;5.63;;
16314;SDS011;8266;52.150;4.768;2023-05-07T03:20:49;7.55;;;5.72;;
16314;SDS011;8266;52.150;4.768;2023-05-07T03:23:17;5.88;;;5.38;;
16314;SDS011;8266;52.150;4.768;2023-05-07T03:25:44;5.75;;;5.25;;
16314;SDS011;8266;52.150;4.768;2023-05-07T03:28:11;6.07;;;5.50;;
16314;SDS011;8266;52.150;4.768;2023-05-07T03:30:38;6.95;;;5.80;;
16314;SDS011;8266;52.150;4.768;2023-05-07T03:33:05;6.47;;;5.88;;
16314;SDS011;8266;52.150;4.768;2023-05-07T03:35:32;6.38;;;5.78;;
16314;SDS011;8266;52.150;4.768;2023-05-07T03:37:59;5.80;;;5.15;;
16314;SDS011;8266;52.150;4.768;2023-05-07T03:40:27;6.68;;;6.00;;
16314;SDS011;8266;52.150;4.768;2023-05-07T03:42:54;5.70;;;5.20;;
16314;SDS011;8266;52.150;4.768;2023-05-07T03:45:21;6.07;;;5.50;;
16314;SDS011;8266;52.150;4.768;2023-05-07T03:47:48;5.57;;;5.03;;
16314;SDS011;8266;52.150;4.768;2023-05-07T03:50:15;6.20;;;5.20;;
16314;SDS011;8266;52.150;4.768;2023-05-07T03:52:42;6.43;;;5.82;;
16314;SDS011;8266;52.150;4.768;2023-05-07T03:55:09;5.50;;;5.03;;
16314;SDS011;8266;52.150;4.768;2023-05-07T03:57:38;5.35;;;4.85;;
16314;SDS011;8266;52.150;4.768;2023-05-07T04:00:05;5.50;;;4.97;;
16314;SDS011;8266;52.150;4.768;2023-05-07T04:02:33;5.60;;;5.10;;
16314;SDS011;8266;52.150;4.768;2023-05-07T04:05:00;5.10;;;4.60;;
16314;SDS011;8266;52.150;4.768;2023-05-07T04:07:27;5.35;;;4.85;;
16314;SDS011;8266;52.150;4.768;2023-05-07T04:09:54;5.25;;;4.85;;
16314;SDS011;8266;52.150;4.768;2023-05-07T04:12:21;5.30;;;4.80;;
16314;SDS011;8266;52.150;4.768;2023-05-07T04:14:49;5.95;;;4.82;;
16314;SDS011;8266;52.150;4.768;2023-05-07T04:17:16;5.70;;;5.20;;
16314;SDS011;8266;52.150;4.768;2023-05-07T04:19:43;5.93;;;5.00;;
16314;SDS011;8266;52.150;4.768;2023-05-07T04:22:10;5.38;;;4.88;;
16314;SDS011;8266;52.150;4.768;2023-05-07T04:24:37;5.75;;;5.25;;
16314;SDS011;8266;52.150;4.768;2023-05-07T04:27:04;6.65;;;5.20;;
16314;SDS011;8266;52.150;4.768;2023-05-07T04:29:31;6.03;;;5.10;;
16314;SDS011;8266;52.150;4.768;2023-05-07T04:32:00;6.85;;;5.10;;
16314;SDS011;8266;52.150;4.768;2023-05-07T04:34:26;5.50;;;5.00;;
16314;SDS011;8266;52.150;4.768;2023-05-07T04:36:53;4.70;;;4.30;;
16314;SDS011;8266;52.150;4.768;2023-05-07T04:39:23;5.57;;;5.05;;
16314;SDS011;8266;52.150;4.768;2023-05-07T04:41:50;5.03;;;4.63;;
16314;SDS011;8266;52.150;4.768;2023-05-07T04:44:17;5.13;;;4.72;;
16314;SDS011;8266;52.150;4.768;2023-05-07T04:46:44;6.53;;;5.25;;
16314;SDS011;8266;52.150;4.768;2023-05-07T04:49:13;6.13;;;5.63;;
16314;SDS011;8266;52.150;4.768;2023-05-07T04:51:40;6.22;;;5.63;;
16314;SDS011;8266;52.150;4.768;2023-05-07T04:54:07;5.78;;;5.20;;
16314;SDS011;8266;52.150;4.768;2023-05-07T04:56:35;6.28;;;5.63;;
16314;SDS011;8266;52.150;4.768;2023-05-07T04:59:02;8.15;;;6.43;;
16314;SDS011;8266;52.150;4.768;2023-05-07T05:01:28;6.57;;;5.97;;
16314;SDS011;8266;52.150;4.768;2023-05-07T05:03:56;6.95;;;6.35;;
16314;SDS011;8266;52.150;4.768;2023-05-07T05:06:24;5.88;;;5.38;;
16314;SDS011;8266;52.150;4.768;2023-05-07T05:08:51;6.10;;;5.60;;
16314;SDS011;8266;52.150;4.768;2023-05-07T05:11:18;6.28;;;5.68;;
16314;SDS011;8266;52.150;4.768;2023-05-07T05:13:45;6.10;;;5.57;;
16314;SDS011;8266;52.150;4.768;2023-05-07T05:16:14;6.78;;;6.18;;
16314;SDS011;8266;52.150;4.768;2023-05-07T05:18:41;6.88;;;6.18;;
16314;SDS011;8266;52.150;4.768;2023-05-07T05:21:08;6.30;;;5.78;;
16314;SDS011;8266;52.150;4.768;2023-05-07T05:23:36;6.78;;;6.18;;
16314;SDS011;8266;52.150;4.768;2023-05-07T05:26:04;6.75;;;6.18;;
16314;SDS011;8266;52.150;4.768;2023-05-07T05:28:31;6.13;;;5.53;;
16314;SDS011;8266;52.150;4.768;2023-05-07T05:30:57;7.15;;;6.45;;
16314;SDS011;8266;52.150;4.768;2023-05-07T05:33:24;7.22;;;6.47;;
16314;SDS011;8266;52.150;4.768;2023-05-07T05:35:53;7.50;;;6.80;;
16314;SDS011;8266;52.150;4.768;2023-05-07T05:38:20;6.78;;;6.20;;
16314;SDS011;8266;52.150;4.768;2023-05-07T05:40:48;7.38;;;6.68;;
16314;SDS011;8266;52.150;4.768;2023-05-07T05:43:15;8.75;;;7.95;;
16314;SDS011;8266;52.150;4.768;2023-05-07T05:45:42;8.18;;;7.47;;
16314;SDS011;8266;52.150;4.768;2023-05-07T05:48:09;8.68;;;7.75;;
16314;SDS011;8266;52.150;4.768;2023-05-07T05:50:36;7.43;;;6.65;;
16314;SDS011;8266;52.150;4.768;2023-05-07T05:53:03;9.27;;;8.38;;
16314;SDS011;8266;52.150;4.768;2023-05-07T05:55:30;7.93;;;7.18;;
16314;SDS011;8266;52.150;4.768;2023-05-07T05:57:59;8.77;;;7.28;;
16314;SDS011;8266;52.150;4.768;2023-05-07T06:00:27;8.52;;;7.72;;
16314;SDS011;8266;52.150;4.768;2023-05-07T06:02:54;9.25;;;8.38;;
16314;SDS011;8266;52.150;4.768;2023-05-07T06:05:21;9.38;;;8.57;;
16314;SDS011;8266;52.150;4.768;2023-05-07T06:07:48;9.13;;;8.38;;
16314;SDS011;8266;52.150;4.768;2023-05-07T06:10:15;10.18;;;9.18;;
16314;SDS011;8266;52.150;4.768;2023-05-07T06:12:42;10.52;;;9.63;;
16314;SDS011;8266;52.150;4.768;2023-05-07T06:15:11;10.55;;;9.55;;
16314;SDS011;8266;52.150;4.768;2023-05-07T06:17:38;10.98;;;9.98;;
16314;SDS011;8266;52.150;4.768;2023-05-07T06:20:05;11.52;;;10.15;;
16314;SDS011;8266;52.150;4.768;2023-05-07T06:22:33;10.55;;;9.52;;
16314;SDS011;8266;52.150;4.768;2023-05-07T06:25:00;10.60;;;9.55;;
16314;SDS011;8266;52.150;4.768;2023-05-07T06:27:27;11.48;;;10.38;;
16314;SDS011;8266;52.150;4.768;2023-05-07T06:29:54;11.20;;;10.18;;
16314;SDS011;8266;52.150;4.768;2023-05-07T06:32:23;11.38;;;10.35;;
16314;SDS011;8266;52.150;4.768;2023-05-07T06:34:49;10.55;;;9.65;;
16314;SDS011;8266;52.150;4.768;2023-05-07T06:37:16;10.18;;;9.25;;
16314;SDS011;8266;52.150;4.768;2023-05-07T06:39:43;11.45;;;10.23;;
16314;SDS011;8266;52.150;4.768;2023-05-07T06:42:10;10.13;;;9.23;;
16314;SDS011;8266;52.150;4.768;2023-05-07T06:44:37;10.63;;;9.52;;
16314;SDS011;8266;52.150;4.768;2023-05-07T06:47:04;10.70;;;9.73;;
16314;SDS011;8266;52.150;4.768;2023-05-07T06:49:32;10.60;;;9.60;;
16314;SDS011;8266;52.150;4.768;2023-05-07T06:51:59;10.27;;;9.27;;
16314;SDS011;8266;52.150;4.768;2023-05-07T06:54:26;11.02;;;9.98;;
16314;SDS011;8266;52.150;4.768;2023-05-07T06:56:53;10.32;;;9.32;;
16314;SDS011;8266;52.150;4.768;2023-05-07T06:59:20;10.27;;;9.38;;
16314;SDS011;8266;52.150;4.768;2023-05-07T07:01:47;10.85;;;9.73;;
16314;SDS011;8266;52.150;4.768;2023-05-07T07:04:14;10.52;;;9.50;;
16314;SDS011;8266;52.150;4.768;2023-05-07T07:06:42;10.50;;;9.35;;
16314;SDS011;8266;52.150;4.768;2023-05-07T07:09:10;10.63;;;9.52;;
16314;SDS011;8266;52.150;4.768;2023-05-07T07:11:36;10.90;;;9.98;;
16314;SDS011;8266;52.150;4.768;2023-05-07T07:14:04;10.73;;;9.73;;
16314;SDS011;8266;52.150;4.768;2023-05-07T07:16:31;10.65;;;9.70;;
16314;SDS011;8266;52.150;4.768;2023-05-07T07:18:58;10.27;;;9.30;;
16314;SDS011;8266;52.150;4.768;2023-05-07T07:21:25;9.00;;;8.25;;
16314;SDS011;8266;52.150;4.768;2023-05-07T07:23:53;10.15;;;9.25;;
16314;SDS011;8266;52.150;4.768;2023-05-07T07:26:20;9.38;;;8.57;;
16314;SDS011;8266;52.150;4.768;2023-05-07T07:28:47;9.45;;;8.25;;
16314;SDS011;8266;52.150;4.768;2023-05-07T07:31:14;9.88;;;9.05;;
16314;SDS011;8266;52.150;4.768;2023-05-07T07:33:41;10.23;;;9.23;;
16314;SDS011;8266;52.150;4.768;2023-05-07T07:36:09;10.63;;;9.55;;
16314;SDS011;8266;52.150;4.768;2023-05-07T07:38:36;10.30;;;9.40;;
16314;SDS011;8266;52.150;4.768;2023-05-07T07:41:04;11.00;;;9.10;;
16314;SDS011;8266;52.150;4.768;2023-05-07T07:43:31;11.07;;;9.98;;
16314;SDS011;8266;52.150;4.768;2023-05-07T07:45:58;9.90;;;9.00;;
16314;SDS011;8266;52.150;4.768;2023-05-07T07:48:25;10.10;;;9.20;;
16314;SDS011;8266;52.150;4.768;2023-05-07T07:50:52;9.52;;;8.63;;
16314;SDS011;8266;52.150;4.768;2023-05-07T07:53:19;10.05;;;9.05;;
16314;SDS011;8266;52.150;4.768;2023-05-07T07:55:46;10.63;;;9.55;;
16314;SDS011;8266;52.150;4.768;2023-05-07T07:58:14;9.43;;;8.60;;
16314;SDS011;8266;52.150;4.768;2023-05-07T08:00:41;8.70;;;8.00;;
16314;SDS011;8266;52.150;4.768;2023-05-07T08:03:09;9.00;;;8.13;;
16314;SDS011;8266;52.150;4.768;2023-05-07T08:05:36;9.52;;;8.63;;
16314;SDS011;8266;52.150;4.768;2023-05-07T08:08:05;9.25;;;8.38;;
16314;SDS011;8266;52.150;4.768;2023-05-07T08:10:32;9.77;;;8.77;;
16314;SDS011;8266;52.150;4.768;2023-05-07T08:13:03;8.70;;;7.95;;
16314;SDS011;8266;52.150;4.768;2023-05-07T08:15:32;9.00;;;8.15;;
16314;SDS011;8266;52.150;4.768;2023-05-07T08:17:59;8.57;;;7.78;;
16314;SDS011;8266;52.150;4.768;2023-05-07T08:20:28;8.10;;;7.40;;
16314;SDS011;8266;52.150;4.768;2023-05-07T08:22:55;7.93;;;7.25;;
16314;SDS011;8266;52.150;4.768;2023-05-07T08:25:22;8.20;;;7.40;;
16314;SDS011;8266;52.150;4.768;2023-05-07T08:27:49;6.85;;;6.22;;
16314;SDS011;8266;52.150;4.768;2023-05-07T08:30:17;6.65;;;6.05;;
16314;SDS011;8266;52.150;4.768;2023-05-07T08:32:45;6.32;;;5.82;;
16314;SDS011;8266;52.150;4.768;2023-05-07T08:35:12;6.40;;;5.88;;
16314;SDS011;8266;52.150;4.768;2023-05-07T08:37:39;6.38;;;5.78;;
16314;SDS011;8266;52.150;4.768;2023-05-07T08:40:07;5.55;;;4.97;;
16314;SDS011;8266;52.150;4.768;2023-05-07T08:42:35;5.03;;;4.63;;
16314;SDS011;8266;52.150;4.768;2023-05-07T08:45:03;6.38;;;4.82;;
16314;SDS011;8266;52.150;4.768;2023-05-07T08:47:34;4.65;;;4.25;;
16314;SDS011;8266;52.150;4.768;2023-05-07T08:50:11;4.75;;;4.35;;
16314;SDS011;8266;52.150;4.768;2023-05-07T08:52:38;4.90;;;4.43;;
16314;SDS011;8266;52.150;4.768;2023-05-07T08:55:06;4.65;;;4.15;;
16314;SDS011;8266;52.150;4.768;2023-05-07T08:57:35;4.47;;;3.83;;
16314;SDS011;8266;52.150;4.768;2023-05-07T09:00:02;3.95;;;3.38;;
16314;SDS011;8266;52.150;4.768;2023-05-07T09:02:29;4.15;;;3.75;;
16314;SDS011;8266;52.150;4.768;2023-05-07T09:04:56;3.55;;;3.25;;
16314;SDS011;8266;52.150;4.768;2023-05-07T09:07:25;4.28;;;3.58;;
16314;SDS011;8266;52.150;4.768;2023-05-07T09:09:52;3.75;;;3.17;;
16314;SDS011;8266;52.150;4.768;2023-05-07T09:12:20;4.22;;;3.28;;
16314;SDS011;8266;52.150;4.768;2023-05-07T09:14:47;3.42;;;3.13;;
16314;SDS011;8266;52.150;4.768;2023-05-07T09:17:15;4.90;;;3.40;;
16314;SDS011;8266;52.150;4.768;2023-05-07T09:19:43;4.82;;;4.05;;
16314;SDS011;8266;52.150;4.768;2023-05-07T09:22:10;3.60;;;3.28;;
16314;SDS011;8266;52.150;4.768;2023-05-07T09:24:39;5.18;;;3.28;;
16314;SDS011;8266;52.150;4.768;2023-05-07T09:27:06;4.38;;;3.42;;
16314;SDS011;8266;52.150;4.768;2023-05-07T09:29:35;5.57;;;3.60;;
16314;SDS011;8266;52.150;4.768;2023-05-07T09:32:02;4.85;;;3.75;;
16314;SDS011;8266;52.150;4.768;2023-05-07T09:34:29;4.63;;;4.22;;
16314;SDS011;8266;52.150;4.768;2023-05-07T09:36:57;5.53;;;3.85;;
16314;SDS011;8266;52.150;4.768;2023-05-07T09:39:26;5.13;;;3.80;;
16314;SDS011;8266;52.150;4.768;2023-05-07T09:42:06;4.57;;;3.72;;
16314;SDS011;8266;52.150;4.768;2023-05-07T09:44:33;4.65;;;3.30;;
16314;SDS011;8266;52.150;4.768;2023-05-07T09:47:01;5.05;;;3.88;;
16314;SDS011;8266;52.150;4.768;2023-05-07T09:49:33;4.40;;;3.30;;
16314;SDS011;8266;52.150;4.768;2023-05-07T09:52:01;4.50;;;3.45;;
16314;SDS011;8266;52.150;4.768;2023-05-07T09:54:31;3.67;;;3.38;;
16314;SDS011;8266;52.150;4.768;2023-05-07T09:57:00;4.38;;;3.97;;
16314;SDS011;8266;52.150;4.768;2023-05-07T09:59:28;4.43;;;4.03;;
16314;SDS011;8266;52.150;4.768;2023-05-07T10:01:57;4.38;;;3.85;;
16314;SDS011;8266;52.150;4.768;2023-05-07T10:04:26;7.07;;;4.20;;
16314;SDS011;8266;52.150;4.768;2023-05-07T10:06:53;4.22;;;3.65;;
16314;SDS011;8266;52.150;4.768;2023-05-07T10:09:21;5.32;;;4.20;;
16314;SDS011;8266;52.150;4.768;2023-05-07T10:11:50;4.30;;;3.90;;
16314;SDS011;8266;52.150;4.768;2023-05-07T10:14:19;4.30;;;3.67;;
16314;SDS011;8266;52.150;4.768;2023-05-07T10:16:47;4.25;;;3.85;;
16314;SDS011;8266;52.150;4.768;2023-05-07T10:19:14;4.13;;;3.72;;
16314;SDS011;8266;52.150;4.768;2023-05-07T10:21:43;4.45;;;3.45;;
16314;SDS011;8266;52.150;4.768;2023-05-07T10:24:15;4.32;;;3.28;;
16314;SDS011;8266;52.150;4.768;2023-05-07T10:26:47;5.15;;;3.20;;
16314;SDS011;8266;52.150;4.768;2023-05-07T10:29:17;4.43;;;3.30;;
16314;SDS011;8266;52.150;4.768;2023-05-07T10:31:54;4.40;;;3.35;;
16314;SDS011;8266;52.150;4.768;2023-05-07T10:34:26;3.85;;;3.25;;
16314;SDS011;8266;52.150;4.768;2023-05-07T10:36:58;7.78;;;3.88;;
16314;SDS011;8266;52.150;4.768;2023-05-07T10:39:26;5.90;;;4.00;;
16314;SDS011;8266;52.150;4.768;2023-05-07T10:41:53;4.63;;;3.80;;
16314;SDS011;8266;52.150;4.768;2023-05-07T10:44:30;4.82;;;3.60;;
16314;SDS011;8266;52.150;4.768;2023-05-07T10:47:07;5.22;;;3.67;;
16314;SDS011;8266;52.150;4.768;2023-05-07T10:49:36;4.65;;;3.92;;
16314;SDS011;8266;52.150;4.768;2023-05-07T10:52:13;4.10;;;3.70;;
16314;SDS011;8266;52.150;4.768;2023-05-07T10:54:41;4.40;;;4.00;;
16314;SDS011;8266;52.150;4.768;2023-05-07T11:00:06;3.97;;;3.55;;
16314;SDS011;8266;52.150;4.768;2023-05-07T11:03:08;4.68;;;3.70;;
16314;SDS011;8266;52.150;4.768;2023-05-07T11:05:35;4.22;;;3.35;;
16314;SDS011;8266;52.150;4.768;2023-05-07T11:08:03;4.25;;;3.85;;
16314;SDS011;8266;52.150;4.768;2023-05-07T11:10:50;4.68;;;3.70;;
16314;SDS011;8266;52.150;4.768;2023-05-07T11:13:18;4.00;;;2.90;;
16314;SDS011;8266;52.150;4.768;2023-05-07T11:16:18;5.07;;;3.63;;
16314;SDS011;8266;52.150;4.768;2023-05-07T11:18:46;4.13;;;3.70;;
16314;SDS011;8266;52.150;4.768;2023-05-07T11:21:19;4.40;;;3.58;;
16314;SDS011;8266;52.150;4.768;2023-05-07T11:23:58;4.65;;;3.22;;
16314;SDS011;8266;52.150;4.768;2023-05-07T11:26:27;4.20;;;3.20;;
16314;SDS011;8266;52.150;4.768;2023-05-07T11:28:55;3.53;;;3.03;;
16314;SDS011;8266;52.150;4.768;2023-05-07T11:31:24;4.93;;;3.22;;
16314;SDS011;8266;52.150;4.768;2023-05-07T11:33:54;4.63;;;3.10;;
16314;SDS011;8266;52.150;4.768;2023-05-07T11:36:24;4.03;;;2.70;;
16314;SDS011;8266;52.150;4.768;2023-05-07T11:38:52;3.55;;;2.55;;
16314;SDS011;8266;52.150;4.768;2023-05-07T11:41:19;4.65;;;2.58;;
16314;SDS011;8266;52.150;4.768;2023-05-07T11:43:53;2.97;;;2.63;;
16314;SDS011;8266;52.150;4.768;2023-05-07T11:46:23;3.78;;;3.38;;
16314;SDS011;8266;52.150;4.768;2023-05-07T11:48:51;4.05;;;3.38;;
16314;SDS011;8266;52.150;4.768;2023-05-07T11:51:18;4.22;;;3.40;;
16314;SDS011;8266;52.150;4.768;2023-05-07T11:53:46;4.18;;;3.42;;
16314;SDS011;8266;52.150;4.768;2023-05-07T11:56:14;4.15;;;3.35;;
16314;SDS011;8266;52.150;4.768;2023-05-07T11:58:43;2.88;;;2.60;;
16314;SDS011;8266;52.150;4.768;2023-05-07T12:01:11;5.60;;;2.67;;
16314;SDS011;8266;52.150;4.768;2023-05-07T12:03:41;5.75;;;2.30;;
16314;SDS011;8266;52.150;4.768;2023-05-07T12:06:10;3.80;;;1.90;;
16314;SDS011;8266;52.150;4.768;2023-05-07T12:08:39;3.67;;;1.92;;
16314;SDS011;8266;52.150;4.768;2023-05-07T12:11:07;3.65;;;2.20;;
16314;SDS011;8266;52.150;4.768;2023-05-07T12:13:36;2.58;;;1.88;;
16314;SDS011;8266;52.150;4.768;2023-05-07T12:16:05;3.97;;;2.13;;
16314;SDS011;8266;52.150;4.768;2023-05-07T12:18:33;5.05;;;1.92;;
16314;SDS011;8266;52.150;4.768;2023-05-07T12:21:03;4.07;;;2.00;;
16314;SDS011;8266;52.150;4.768;2023-05-07T12:23:31;4.65;;;2.25;;
16314;SDS011;8266;52.150;4.768;2023-05-07T12:25:58;3.85;;;2.00;;
16314;SDS011;8266;52.150;4.768;2023-05-07T12:28:26;2.65;;;1.90;;
16314;SDS011;8266;52.150;4.768;2023-05-07T12:30:53;3.05;;;1.48;;
16314;SDS011;8266;52.150;4.768;2023-05-07T12:33:23;3.63;;;1.77;;
16314;SDS011;8266;52.150;4.768;2023-05-07T12:35:53;3.55;;;1.80;;
16314;SDS011;8266;52.150;4.768;2023-05-07T12:38:22;3.53;;;2.05;;
16314;SDS011;8266;52.150;4.768;2023-05-07T12:40:50;2.90;;;1.70;;
16314;SDS011;8266;52.150;4.768;2023-05-07T12:43:20;3.47;;;1.75;;
16314;SDS011;8266;52.150;4.768;2023-05-07T12:45:48;3.78;;;1.55;;
16314;SDS011;8266;52.150;4.768;2023-05-07T12:48:16;3.47;;;1.55;;
16314;SDS011;8266;52.150;4.768;2023-05-07T12:50:45;2.75;;;1.70;;
16314;SDS011;8266;52.150;4.768;2023-05-07T12:53:15;2.75;;;1.70;;
16314;SDS011;8266;52.150;4.768;2023-05-07T12:55:44;4.50;;;2.05;;
16314;SDS011;8266;52.150;4.768;2023-05-07T12:58:15;3.00;;;2.00;;
16314;SDS011;8266;52.150;4.768;2023-05-07T13:00:43;5.60;;;1.65;;
16314;SDS011;8266;52.150;4.768;2023-05-07T13:03:11;3.92;;;2.08;;
16314;SDS011;8266;52.150;4.768;2023-05-07T13:05:38;2.85;;;1.40;;
16314;SDS011;8266;52.150;4.768;2023-05-07T13:08:05;4.22;;;1.50;;
16314;SDS011;8266;52.150;4.768;2023-05-07T13:10:34;3.30;;;1.55;;
16314;SDS011;8266;52.150;4.768;2023-05-07T13:13:03;4.38;;;1.70;;
16314;SDS011;8266;52.150;4.768;2023-05-07T13:15:30;2.30;;;2.00;;
16314;SDS011;8266;52.150;4.768;2023-05-07T13:17:57;3.97;;;2.38;;
16314;SDS011;8266;52.150;4.768;2023-05-07T13:20:25;4.75;;;2.75;;
16314;SDS011;8266;52.150;4.768;2023-05-07T13:22:52;4.20;;;2.83;;
16314;SDS011;8266;52.150;4.768;2023-05-07T13:25:19;5.15;;;3.90;;
16314;SDS011;8266;52.150;4.768;2023-05-07T13:27:46;9.50;;;4.70;;
16314;SDS011;8266;52.150;4.768;2023-05-07T13:30:14;7.32;;;4.80;;
16314;SDS011;8266;52.150;4.768;2023-05-07T13:32:41;6.50;;;4.82;;
16314;SDS011;8266;52.150;4.768;2023-05-07T13:35:09;6.72;;;4.82;;
16314;SDS011;8266;52.150;4.768;2023-05-07T13:37:36;5.50;;;4.72;;
16314;SDS011;8266;52.150;4.768;2023-05-07T13:40:03;5.75;;;4.20;;
16314;SDS011;8266;52.150;4.768;2023-05-07T13:42:31;6.15;;;4.70;;
16314;SDS011;8266;52.150;4.768;2023-05-07T13:44:58;6.40;;;4.55;;
16314;SDS011;8266;52.150;4.768;2023-05-07T13:47:27;6.53;;;4.70;;
16314;SDS011;8266;52.150;4.768;2023-05-07T13:49:54;7.88;;;4.97;;
16314;SDS011;8266;52.150;4.768;2023-05-07T13:52:21;7.18;;;4.57;;
16314;SDS011;8266;52.150;4.768;2023-05-07T13:54:48;7.90;;;4.28;;
16314;SDS011;8266;52.150;4.768;2023-05-07T13:57:17;10.52;;;4.40;;
16314;SDS011;8266;52.150;4.768;2023-05-07T13:59:44;12.15;;;6.30;;
16314;SDS011;8266;52.150;4.768;2023-05-07T14:02:11;8.23;;;5.00;;
16314;SDS011;8266;52.150;4.768;2023-05-07T14:04:39;12.52;;;5.72;;
16314;SDS011;8266;52.150;4.768;2023-05-07T14:07:06;8.10;;;5.32;;
16314;SDS011;8266;52.150;4.768;2023-05-07T14:09:33;7.35;;;5.28;;
16314;SDS011;8266;52.150;4.768;2023-05-07T14:12:00;7.22;;;4.80;;
16314;SDS011;8266;52.150;4.768;2023-05-07T14:14:27;8.00;;;5.07;;
16314;SDS011;8266;52.150;4.768;2023-05-07T14:16:54;6.53;;;5.05;;
16314;SDS011;8266;52.150;4.768;2023-05-07T14:19:21;6.82;;;5.05;;
16314;SDS011;8266;52.150;4.768;2023-05-07T14:21:50;7.38;;;4.88;;
16314;SDS011;8266;52.150;4.768;2023-05-07T14:24:17;7.65;;;4.68;;
16314;SDS011;8266;52.150;4.768;2023-05-07T14:26:44;9.38;;;5.53;;
16314;SDS011;8266;52.150;4.768;2023-05-07T14:29:11;7.28;;;5.53;;
16314;SDS011;8266;52.150;4.768;2023-05-07T14:31:40;8.32;;;5.82;;
16314;SDS011;8266;52.150;4.768;2023-05-07T14:34:07;6.15;;;4.93;;
16314;SDS011;8266;52.150;4.768;2023-05-07T14:36:34;7.78;;;5.03;;
16314;SDS011;8266;52.150;4.768;2023-05-07T14:39:03;6.20;;;4.25;;
16314;SDS011;8266;52.150;4.768;2023-05-07T14:41:30;6.13;;;4.53;;
16314;SDS011;8266;52.150;4.768;2023-05-07T14:43:58;6.07;;;3.95;;
16314;SDS011;8266;52.150;4.768;2023-05-07T14:46:25;7.03;;;3.63;;
16314;SDS011;8266;52.150;4.768;2023-05-07T14:48:52;5.93;;;3.33;;
16314;SDS011;8266;52.150;4.768;2023-05-07T14:51:19;4.25;;;2.78;;
16314;SDS011;8266;52.150;4.768;2023-05-07T14:53:47;4.65;;;3.33;;
16314;SDS011;8266;52.150;4.768;2023-05-07T14:56:15;8.15;;;3.88;;
16314;SDS011;8266;52.150;4.768;2023-05-07T14:58:43;4.90;;;3.92;;
16314;SDS011;8266;52.150;4.768;2023-05-07T15:01:10;5.32;;;4.00;;
16314;SDS011;8266;52.150;4.768;2023-05-07T15:03:37;5.45;;;3.60;;